sensor_id;sensor_type;location;lat;lon;timestamp;temperature;humidity
11242;DHT22;5678;52.370;9.006;2024-01-10T02:33:48;-8.10;1.00
11242;DHT22;5678;52.370;9.006;2024-01-10T02:36:17;-8.10;1.00
11242;DHT22;5678;52.370;9.006;2024-01-10T02:38:45;-7.80;1.00
11242;DHT22;5678;52.370;9.006;2024-01-10T02:41:14;-6.30;1.00
11242;DHT22;5678;52.370;9.006;2024-01-10T02:43:43;-8.10;1.00
11242;DHT22;5678;52.370;9.006;2024-01-10T02:46:11;-4.90;1.00
11242;DHT22;5678;52.370;9.006;2024-01-10T02:48:40;-5.30;1.00
11242;DHT22;5678;52.370;9.006;2024-01-10T02:51:12;-6.50;1.00
11242;DHT22;5678;52.370;9.006;2024-01-10T02:53:43;-7.00;1.00
11242;DHT22;5678;52.370;9.006;2024-01-10T02:56:11;-4.50;1.00
11242;DHT22;5678;52.370;9.006;2024-01-10T02:58:40;-7.80;99.90
11242;DHT22;5678;52.370;9.006;2024-01-10T03:01:13;-6.10;1.00
11242;DHT22;5678;52.370;9.006;2024-01-10T03:03:42;-7.10;1.00
11242;DHT22;5678;52.370;9.006;2024-01-10T03:06:12;-8.20;1.00
11242;DHT22;5678;52.370;9.006;2024-01-10T03:08:40;-9.30;1.00
11242;DHT22;5678;52.370;9.006;2024-01-10T03:11:09;-7.50;1.00
11242;DHT22;5678;52.370;9.006;2024-01-10T03:13:37;-5.20;1.00
11242;DHT22;5678;52.370;9.006;2024-01-10T03:16:07;-4.20;1.00
11242;DHT22;5678;52.370;9.006;2024-01-10T03:18:35;-7.60;1.00
11242;DHT22;5678;52.370;9.006;2024-01-10T03:21:04;-5.40;1.00
11242;DHT22;5678;52.370;9.006;2024-01-10T03:26:04;-7.90;87.70
11242;DHT22;5678;52.370;9.006;2024-01-10T03:28:33;-8.60;99.90
11242;DHT22;5678;52.370;9.006;2024-01-10T03:31:04;-6.20;99.90
11242;DHT22;5678;52.370;9.006;2024-01-10T03:33:36;-6.70;99.90
11242;DHT22;5678;52.370;9.006;2024-01-10T03:36:05;-7.00;38.30
11242;DHT22;5678;52.370;9.006;2024-01-10T03:38:34;-6.80;99.90
11242;DHT22;5678;52.370;9.006;2024-01-10T03:41:04;-5.70;99.90
11242;DHT22;5678;52.370;9.006;2024-01-10T03:43:33;-4.00;99.90
11242;DHT22;5678;52.370;9.006;2024-01-10T03:46:01;-7.20;99.90
11242;DHT22;5678;52.370;9.006;2024-01-10T03:48:30;-7.50;99.90
11242;DHT22;5678;52.370;9.006;2024-01-10T03:50:58;-7.00;99.90
11242;DHT22;5678;52.370;9.006;2024-01-10T03:55:56;-7.50;1.00
11242;DHT22;5678;52.370;9.006;2024-01-10T03:58:26;-7.90;99.90
11242;DHT22;5678;52.370;9.006;2024-01-10T04:00:55;-6.70;99.90
11242;DHT22;5678;52.370;9.006;2024-01-10T04:06:13;-7.80;92.00
11242;DHT22;5678;52.370;9.006;2024-01-10T04:08:42;-5.30;99.90
11242;DHT22;5678;52.370;9.006;2024-01-10T04:11:10;-5.40;99.90
11242;DHT22;5678;52.370;9.006;2024-01-10T04:13:40;-5.80;99.90
11242;DHT22;5678;52.370;9.006;2024-01-10T04:16:11;-8.30;99.90
11242;DHT22;5678;52.370;9.006;2024-01-10T04:18:40;-7.60;20.10
11242;DHT22;5678;52.370;9.006;2024-01-10T04:21:09;-8.90;99.90
11242;DHT22;5678;52.370;9.006;2024-01-10T04:23:40;-7.80;99.90
11242;DHT22;5678;52.370;9.006;2024-01-10T04:26:09;-8.00;99.90
11242;DHT22;5678;52.370;9.006;2024-01-10T04:28:37;-7.80;1.00
11242;DHT22;5678;52.370;9.006;2024-01-10T04:31:11;-7.90;1.00
11242;DHT22;5678;52.370;9.006;2024-01-10T04:33:39;-7.90;99.90
11242;DHT22;5678;52.370;9.006;2024-01-10T04:36:08;-8.00;99.90
11242;DHT22;5678;52.370;9.006;2024-01-10T04:38:36;-7.90;99.90
11242;DHT22;5678;52.370;9.006;2024-01-10T04:41:05;-7.90;1.00
11242;DHT22;5678;52.370;9.006;2024-01-10T04:46:10;-7.60;99.90
11242;DHT22;5678;52.370;9.006;2024-01-10T04:48:40;-8.00;99.90
11242;DHT22;5678;52.370;9.006;2024-01-10T04:51:08;-7.40;99.90
11242;DHT22;5678;52.370;9.006;2024-01-10T04:53:37;-8.00;1.00
11242;DHT22;5678;52.370;9.006;2024-01-10T04:56:06;-8.10;1.00
11242;DHT22;5678;52.370;9.006;2024-01-10T04:58:34;-8.10;1.00
11242;DHT22;5678;52.370;9.006;2024-01-10T05:01:04;-8.10;1.00
11242;DHT22;5678;52.370;9.006;2024-01-10T05:03:34;-8.20;1.00
11242;DHT22;5678;52.370;9.006;2024-01-10T05:06:03;-8.20;1.00
11242;DHT22;5678;52.370;9.006;2024-01-10T05:08:32;-8.20;1.00
11242;DHT22;5678;52.370;9.006;2024-01-10T05:11:00;-8.20;1.00
11242;DHT22;5678;52.370;9.006;2024-01-10T05:13:29;-8.30;1.00
11242;DHT22;5678;52.370;9.006;2024-01-10T05:16:00;-8.20;1.00
11242;DHT22;5678;52.370;9.006;2024-01-10T05:18:29;-8.20;1.00
11242;DHT22;5678;52.370;9.006;2024-01-10T05:20:59;-8.20;1.00
11242;DHT22;5678;52.370;9.006;2024-01-10T05:23:28;-8.30;1.00
11242;DHT22;5678;52.370;9.006;2024-01-10T05:25:56;-8.30;1.00
11242;DHT22;5678;52.370;9.006;2024-01-10T05:28:26;-8.30;1.00
11242;DHT22;5678;52.370;9.006;2024-01-10T05:30:54;-8.30;1.00
11242;DHT22;5678;52.370;9.006;2024-01-10T05:33:23;-8.30;1.00
11242;DHT22;5678;52.370;9.006;2024-01-10T06:36:53;-8.00;99.90
11242;DHT22;5678;52.370;9.006;2024-01-10T06:39:21;-8.20;99.90
11242;DHT22;5678;52.370;9.006;2024-01-10T06:41:49;-8.00;99.90
11242;DHT22;5678;52.370;9.006;2024-01-10T06:44:17;-8.10;99.90
11242;DHT22;5678;52.370;9.006;2024-01-10T06:46:46;-8.10;99.90
11242;DHT22;5678;52.370;9.006;2024-01-10T06:49:14;-8.10;99.90
11242;DHT22;5678;52.370;9.006;2024-01-10T06:51:43;-8.10;99.90
11242;DHT22;5678;52.370;9.006;2024-01-10T06:54:12;-8.10;99.90
11242;DHT22;5678;52.370;9.006;2024-01-10T06:56:41;-8.10;99.90
11242;DHT22;5678;52.370;9.006;2024-01-10T06:59:13;-7.90;99.90
11242;DHT22;5678;52.370;9.006;2024-01-10T07:01:42;-7.60;99.90
11242;DHT22;5678;52.370;9.006;2024-01-10T07:04:10;-8.10;1.00
11242;DHT22;5678;52.370;9.006;2024-01-10T07:06:42;-8.40;99.90
11242;DHT22;5678;52.370;9.006;2024-01-10T07:09:13;-8.10;1.00
11242;DHT22;5678;52.370;9.006;2024-01-10T07:11:46;-8.20;99.90
11242;DHT22;5678;52.370;9.006;2024-01-10T07:14:15;-8.10;99.90
11242;DHT22;5678;52.370;9.006;2024-01-10T07:16:44;-8.20;1.00
11242;DHT22;5678;52.370;9.006;2024-01-10T07:19:14;-8.10;99.90
11242;DHT22;5678;52.370;9.006;2024-01-10T07:21:43;-8.20;1.00
11242;DHT22;5678;52.370;9.006;2024-01-10T07:24:13;-8.20;1.00
11242;DHT22;5678;52.370;9.006;2024-01-10T07:26:42;-8.20;1.00
11242;DHT22;5678;52.370;9.006;2024-01-10T07:29:10;-8.30;1.00
11242;DHT22;5678;52.370;9.006;2024-01-10T07:31:38;-8.20;1.00
11242;DHT22;5678;52.370;9.006;2024-01-10T07:34:08;-10.00;1.00
11242;DHT22;5678;52.370;9.006;2024-01-10T07:36:41;-8.30;1.00
11242;DHT22;5678;52.370;9.006;2024-01-10T07:39:15;-8.30;1.00
11242;DHT22;5678;52.370;9.006;2024-01-10T07:41:45;-8.30;1.00
11242;DHT22;5678;52.370;9.006;2024-01-10T07:44:14;-8.40;1.00
11242;DHT22;5678;52.370;9.006;2024-01-10T07:46:42;-8.30;1.00
11242;DHT22;5678;52.370;9.006;2024-01-10T07:49:14;-8.30;1.00
11242;DHT22;5678;52.370;9.006;2024-01-10T07:51:43;-8.30;1.00
11242;DHT22;5678;52.370;9.006;2024-01-10T07:54:13;-8.30;95.60
11242;DHT22;5678;52.370;9.006;2024-01-10T07:56:42;-8.30;21.50
11242;DHT22;5678;52.370;9.006;2024-01-10T07:59:10;-8.20;58.60
11242;DHT22;5678;52.370;9.006;2024-01-10T08:01:44;-8.20;99.90
11242;DHT22;5678;52.370;9.006;2024-01-10T08:04:22;-8.20;1.00
11242;DHT22;5678;52.370;9.006;2024-01-10T08:06:52;-8.10;1.00
11242;DHT22;5678;52.370;9.006;2024-01-10T08:09:23;-7.90;95.30
11242;DHT22;5678;52.370;9.006;2024-01-10T08:11:51;-8.10;1.00
11242;DHT22;5678;52.370;9.006;2024-01-10T08:14:19;-8.20;1.00
11242;DHT22;5678;52.370;9.006;2024-01-10T08:16:48;-8.10;1.00
11242;DHT22;5678;52.370;9.006;2024-01-10T08:19:16;-8.20;1.00
11242;DHT22;5678;52.370;9.006;2024-01-10T08:21:44;-8.00;1.00
11242;DHT22;5678;52.370;9.006;2024-01-10T08:24:13;-8.10;1.00
11242;DHT22;5678;52.370;9.006;2024-01-10T08:26:42;-8.00;1.00
11242;DHT22;5678;52.370;9.006;2024-01-10T08:29:11;-8.00;1.00
11242;DHT22;5678;52.370;9.006;2024-01-10T08:40:57;-7.80;1.00
11242;DHT22;5678;52.370;9.006;2024-01-10T08:43:27;-7.80;1.00
11242;DHT22;5678;52.370;9.006;2024-01-10T08:45:55;-7.70;99.90
11242;DHT22;5678;52.370;9.006;2024-01-10T08:48:27;-7.70;1.00
11242;DHT22;5678;52.370;9.006;2024-01-10T08:51:04;-7.70;99.90
11242;DHT22;5678;52.370;9.006;2024-01-10T08:53:36;-7.60;99.90
11242;DHT22;5678;52.370;9.006;2024-01-10T08:56:24;-7.60;1.00
11242;DHT22;5678;52.370;9.006;2024-01-10T08:59:03;-7.50;99.90
11242;DHT22;5678;52.370;9.006;2024-01-10T09:03:06;-7.50;99.90
11242;DHT22;5678;52.370;9.006;2024-01-10T11:34:14;-4.10;1.00
11242;DHT22;5678;52.370;9.006;2024-01-10T11:37:11;-4.00;1.00
11242;DHT22;5678;52.370;9.006;2024-01-10T11:39:41;-3.80;1.00
11242;DHT22;5678;52.370;9.006;2024-01-10T11:42:09;-3.80;1.00
11242;DHT22;5678;52.370;9.006;2024-01-10T11:44:47;-3.90;1.00
11242;DHT22;5678;52.370;9.006;2024-01-10T11:47:16;-3.80;1.00
11242;DHT22;5678;52.370;9.006;2024-01-10T11:49:57;-3.70;1.00
11242;DHT22;5678;52.370;9.006;2024-01-10T11:52:32;-3.80;1.00
11242;DHT22;5678;52.370;9.006;2024-01-10T11:55:01;-3.70;1.00
11242;DHT22;5678;52.370;9.006;2024-01-10T11:57:30;-3.70;1.00
11242;DHT22;5678;52.370;9.006;2024-01-10T11:59:59;-3.60;1.00
11242;DHT22;5678;52.370;9.006;2024-01-10T12:02:29;-3.70;1.00
11242;DHT22;5678;52.370;9.006;2024-01-10T12:04:59;-3.60;1.00
11242;DHT22;5678;52.370;9.006;2024-01-10T12:07:28;-3.70;1.00
11242;DHT22;5678;52.370;9.006;2024-01-10T12:09:56;-3.60;1.00
11242;DHT22;5678;52.370;9.006;2024-01-10T12:12:24;-3.60;1.00
11242;DHT22;5678;52.370;9.006;2024-01-10T12:14:53;-3.40;1.00
11242;DHT22;5678;52.370;9.006;2024-01-10T12:17:21;-3.50;1.00
11242;DHT22;5678;52.370;9.006;2024-01-10T12:19:49;-3.50;1.00
11242;DHT22;5678;52.370;9.006;2024-01-10T12:22:19;-3.40;1.00
11242;DHT22;5678;52.370;9.006;2024-01-10T12:24:48;-3.50;1.00
11242;DHT22;5678;52.370;9.006;2024-01-10T12:27:18;-3.40;1.00
11242;DHT22;5678;52.370;9.006;2024-01-10T12:29:49;-3.50;1.00
11242;DHT22;5678;52.370;9.006;2024-01-10T12:32:19;-3.10;1.00
11242;DHT22;5678;52.370;9.006;2024-01-10T12:34:54;-3.40;1.00
11242;DHT22;5678;52.370;9.006;2024-01-10T12:37:24;-3.40;1.00
11242;DHT22;5678;52.370;9.006;2024-01-10T12:39:52;-3.40;1.00
11242;DHT22;5678;52.370;9.006;2024-01-10T12:42:20;-3.20;1.00
11242;DHT22;5678;52.370;9.006;2024-01-10T12:44:48;-3.10;1.00
11242;DHT22;5678;52.370;9.006;2024-01-10T12:47:19;-3.20;1.00
11242;DHT22;5678;52.370;9.006;2024-01-10T12:49:48;-3.20;1.00
11242;DHT22;5678;52.370;9.006;2024-01-10T12:52:17;-3.00;1.00
11242;DHT22;5678;52.370;9.006;2024-01-10T12:54:51;-3.10;1.00
11242;DHT22;5678;52.370;9.006;2024-01-10T12:57:20;-2.50;1.00
11242;DHT22;5678;52.370;9.006;2024-01-10T12:59:50;-3.00;1.00
11242;DHT22;5678;52.370;9.006;2024-01-10T13:02:18;-3.10;1.00
11242;DHT22;5678;52.370;9.006;2024-01-10T13:04:46;-3.20;1.00
11242;DHT22;5678;52.370;9.006;2024-01-10T13:07:14;-3.20;1.00
11242;DHT22;5678;52.370;9.006;2024-01-10T13:09:43;-3.10;1.00
11242;DHT22;5678;52.370;9.006;2024-01-10T13:12:12;-3.10;1.00
11242;DHT22;5678;52.370;9.006;2024-01-10T13:14:40;-3.10;1.00
11242;DHT22;5678;52.370;9.006;2024-01-10T13:17:09;-3.00;1.00
11242;DHT22;5678;52.370;9.006;2024-01-10T13:19:37;-3.10;1.00
11242;DHT22;5678;52.370;9.006;2024-01-10T13:22:05;-3.10;1.00
11242;DHT22;5678;52.370;9.006;2024-01-10T13:24:35;-3.20;1.00
11242;DHT22;5678;52.370;9.006;2024-01-10T13:27:04;-3.00;1.00
11242;DHT22;5678;52.370;9.006;2024-01-10T13:29:34;-3.00;1.00
11242;DHT22;5678;52.370;9.006;2024-01-10T13:32:04;-3.00;1.00
11242;DHT22;5678;52.370;9.006;2024-01-10T13:34:32;-3.00;1.00
11242;DHT22;5678;52.370;9.006;2024-01-10T13:37:00;-2.90;1.00
11242;DHT22;5678;52.370;9.006;2024-01-10T13:39:29;-2.90;1.00
11242;DHT22;5678;52.370;9.006;2024-01-10T13:41:57;-2.40;1.00
11242;DHT22;5678;52.370;9.006;2024-01-10T13:44:25;-3.00;1.00
11242;DHT22;5678;52.370;9.006;2024-01-10T13:46:54;-3.00;1.00
11242;DHT22;5678;52.370;9.006;2024-01-10T13:49:23;-2.90;1.00
11242;DHT22;5678;52.370;9.006;2024-01-10T13:51:51;-2.90;1.00
11242;DHT22;5678;52.370;9.006;2024-01-10T13:54:19;-2.70;1.00
11242;DHT22;5678;52.370;9.006;2024-01-10T13:56:48;-3.00;1.00
11242;DHT22;5678;52.370;9.006;2024-01-10T13:59:16;-3.00;1.00
11242;DHT22;5678;52.370;9.006;2024-01-10T14:01:44;-3.00;1.00
11242;DHT22;5678;52.370;9.006;2024-01-10T14:04:13;-2.90;1.00
11242;DHT22;5678;52.370;9.006;2024-01-10T14:06:41;-3.10;1.00
11242;DHT22;5678;52.370;9.006;2024-01-10T14:09:09;-3.00;1.00
11242;DHT22;5678;52.370;9.006;2024-01-10T14:11:38;-3.00;1.00
11242;DHT22;5678;52.370;9.006;2024-01-10T14:14:06;-3.10;1.00
11242;DHT22;5678;52.370;9.006;2024-01-10T14:16:34;-2.60;1.00
11242;DHT22;5678;52.370;9.006;2024-01-10T14:19:02;-3.10;1.00
11242;DHT22;5678;52.370;9.006;2024-01-10T14:21:32;-3.10;1.00
11242;DHT22;5678;52.370;9.006;2024-01-10T14:24:00;-2.90;1.00
11242;DHT22;5678;52.370;9.006;2024-01-10T14:26:28;-3.10;1.00
11242;DHT22;5678;52.370;9.006;2024-01-10T14:28:57;-3.10;1.00
11242;DHT22;5678;52.370;9.006;2024-01-10T14:31:26;-3.10;1.00
11242;DHT22;5678;52.370;9.006;2024-01-10T14:34:14;-3.20;1.00
11242;DHT22;5678;52.370;9.006;2024-01-10T14:36:44;-3.10;1.00
11242;DHT22;5678;52.370;9.006;2024-01-10T14:39:12;-3.20;1.00
11242;DHT22;5678;52.370;9.006;2024-01-10T14:41:42;-3.30;1.00
11242;DHT22;5678;52.370;9.006;2024-01-10T14:44:10;-3.30;1.00
11242;DHT22;5678;52.370;9.006;2024-01-10T14:46:38;-3.30;1.00
11242;DHT22;5678;52.370;9.006;2024-01-10T14:49:09;-3.40;1.00
11242;DHT22;5678;52.370;9.006;2024-01-10T14:51:38;-3.40;1.00
11242;DHT22;5678;52.370;9.006;2024-01-10T14:54:07;-3.50;1.00
11242;DHT22;5678;52.370;9.006;2024-01-10T14:56:35;-3.50;1.00
11242;DHT22;5678;52.370;9.006;2024-01-10T14:59:06;-3.50;1.00
11242;DHT22;5678;52.370;9.006;2024-01-10T15:01:34;-3.50;1.00
11242;DHT22;5678;52.370;9.006;2024-01-10T15:04:02;-3.50;1.00
11242;DHT22;5678;52.370;9.006;2024-01-10T15:06:30;-3.60;1.00
11242;DHT22;5678;52.370;9.006;2024-01-10T15:08:58;-3.70;1.00
11242;DHT22;5678;52.370;9.006;2024-01-10T15:11:31;-3.80;1.00
11242;DHT22;5678;52.370;9.006;2024-01-10T15:13:59;-3.80;1.00
11242;DHT22;5678;52.370;9.006;2024-01-10T15:16:27;-3.90;1.00
11242;DHT22;5678;52.370;9.006;2024-01-10T15:18:55;-3.80;1.00
11242;DHT22;5678;52.370;9.006;2024-01-10T15:21:24;-4.00;1.00
11242;DHT22;5678;52.370;9.006;2024-01-10T15:23:52;-3.90;1.00
11242;DHT22;5678;52.370;9.006;2024-01-10T15:26:20;-4.00;1.00
11242;DHT22;5678;52.370;9.006;2024-01-10T15:28:51;-4.00;1.00
11242;DHT22;5678;52.370;9.006;2024-01-10T15:31:21;-4.10;1.00
11242;DHT22;5678;52.370;9.006;2024-01-10T15:33:50;-4.10;1.00
11242;DHT22;5678;52.370;9.006;2024-01-10T15:36:18;-4.20;1.00
11242;DHT22;5678;52.370;9.006;2024-01-10T15:38:46;-4.20;1.00
11242;DHT22;5678;52.370;9.006;2024-01-10T15:41:14;-4.20;1.00
11242;DHT22;5678;52.370;9.006;2024-01-10T15:43:45;-4.40;1.00
11242;DHT22;5678;52.370;9.006;2024-01-10T15:46:19;-4.40;1.00
11242;DHT22;5678;52.370;9.006;2024-01-10T15:48:47;-4.40;1.00
11242;DHT22;5678;52.370;9.006;2024-01-10T15:51:15;-4.50;1.00
11242;DHT22;5678;52.370;9.006;2024-01-10T15:53:43;-4.50;1.00
11242;DHT22;5678;52.370;9.006;2024-01-10T15:56:12;-4.50;1.00
11242;DHT22;5678;52.370;9.006;2024-01-10T15:58:41;-4.60;1.00
11242;DHT22;5678;52.370;9.006;2024-01-10T16:01:10;-4.50;1.00
11242;DHT22;5678;52.370;9.006;2024-01-10T16:03:39;-4.70;1.00
11242;DHT22;5678;52.370;9.006;2024-01-10T16:06:07;-4.70;1.00
11242;DHT22;5678;52.370;9.006;2024-01-10T16:08:37;-4.80;1.00
11242;DHT22;5678;52.370;9.006;2024-01-10T16:11:05;-4.90;1.00
11242;DHT22;5678;52.370;9.006;2024-01-10T16:13:33;-4.60;1.00
11242;DHT22;5678;52.370;9.006;2024-01-10T16:16:01;-4.90;1.00
11242;DHT22;5678;52.370;9.006;2024-01-10T16:18:31;-4.90;1.00
11242;DHT22;5678;52.370;9.006;2024-01-10T16:21:01;-5.00;1.00
11242;DHT22;5678;52.370;9.006;2024-01-10T16:23:29;-5.10;1.00
11242;DHT22;5678;52.370;9.006;2024-01-10T16:25:57;-5.10;1.00
11242;DHT22;5678;52.370;9.006;2024-01-10T16:28:25;-5.10;1.00
11242;DHT22;5678;52.370;9.006;2024-01-10T16:30:55;-5.10;1.00
11242;DHT22;5678;52.370;9.006;2024-01-10T16:33:24;-5.10;1.00
11242;DHT22;5678;52.370;9.006;2024-01-10T16:35:52;-5.10;1.00
11242;DHT22;5678;52.370;9.006;2024-01-10T16:38:21;-5.10;1.00
11242;DHT22;5678;52.370;9.006;2024-01-10T16:40:50;-5.10;1.00
11242;DHT22;5678;52.370;9.006;2024-01-10T16:43:18;-5.00;1.00
11242;DHT22;5678;52.370;9.006;2024-01-10T16:45:46;-5.10;1.00
11242;DHT22;5678;52.370;9.006;2024-01-10T16:48:14;-5.20;1.00
11242;DHT22;5678;52.370;9.006;2024-01-10T16:50:42;-5.00;1.00
11242;DHT22;5678;52.370;9.006;2024-01-10T16:53:11;-5.10;1.00
11242;DHT22;5678;52.370;9.006;2024-01-10T16:55:40;-5.10;1.00
11242;DHT22;5678;52.370;9.006;2024-01-10T16:58:08;-5.00;1.00
11242;DHT22;5678;52.370;9.006;2024-01-10T17:00:36;-5.20;1.00
11242;DHT22;5678;52.370;9.006;2024-01-10T17:03:05;-5.20;8.60
11242;DHT22;5678;52.370;9.006;2024-01-10T17:05:33;-5.30;11.70
11242;DHT22;5678;52.370;9.006;2024-01-10T17:08:07;-5.20;9.00
11242;DHT22;5678;52.370;9.006;2024-01-10T17:10:36;-5.40;1.00
11242;DHT22;5678;52.370;9.006;2024-01-10T17:13:06;-5.40;1.00
11242;DHT22;5678;52.370;9.006;2024-01-10T17:15:34;-5.30;27.30
11242;DHT22;5678;52.370;9.006;2024-01-10T17:18:03;-5.40;17.60
11242;DHT22;5678;52.370;9.006;2024-01-10T17:20:31;-5.60;11.50
11242;DHT22;5678;52.370;9.006;2024-01-10T17:23:00;-5.60;28.30
11242;DHT22;5678;52.370;9.006;2024-01-10T17:25:28;-5.70;30.40
11242;DHT22;5678;52.370;9.006;2024-01-10T17:27:56;-5.70;50.30
11242;DHT22;5678;52.370;9.006;2024-01-10T17:30:28;-5.60;1.00
11242;DHT22;5678;52.370;9.006;2024-01-10T17:32:56;-5.70;58.50
11242;DHT22;5678;52.370;9.006;2024-01-10T17:35:24;-5.60;59.30
11242;DHT22;5678;52.370;9.006;2024-01-10T17:37:53;-5.50;1.00
11242;DHT22;5678;52.370;9.006;2024-01-10T17:40:21;-5.70;29.80
11242;DHT22;5678;52.370;9.006;2024-01-10T17:42:49;-5.60;32.70
11242;DHT22;5678;52.370;9.006;2024-01-10T17:45:17;-5.60;41.20
11242;DHT22;5678;52.370;9.006;2024-01-10T17:47:46;-5.60;46.80
11242;DHT22;5678;52.370;9.006;2024-01-10T17:50:15;-5.60;50.50
11242;DHT22;5678;52.370;9.006;2024-01-10T17:52:45;-5.60;46.00
11242;DHT22;5678;52.370;9.006;2024-01-10T17:55:13;-5.60;59.50
11242;DHT22;5678;52.370;9.006;2024-01-10T17:57:41;-5.50;43.40
11242;DHT22;5678;52.370;9.006;2024-01-10T18:12:17;-5.40;1.00
11242;DHT22;5678;52.370;9.006;2024-01-10T18:14:45;-5.50;3.20
11242;DHT22;5678;52.370;9.006;2024-01-10T18:17:13;-5.70;1.00
11242;DHT22;5678;52.370;9.006;2024-01-10T18:19:41;-5.70;1.00
11242;DHT22;5678;52.370;9.006;2024-01-10T18:22:11;-5.70;1.00
11242;DHT22;5678;52.370;9.006;2024-01-10T18:24:39;-5.80;1.00
11242;DHT22;5678;52.370;9.006;2024-01-10T18:27:07;-5.40;1.00
11242;DHT22;5678;52.370;9.006;2024-01-10T18:29:36;-6.30;1.00
11242;DHT22;5678;52.370;9.006;2024-01-10T18:32:05;-5.50;1.00
11242;DHT22;5678;52.370;9.006;2024-01-10T18:34:33;-5.50;1.00
11242;DHT22;5678;52.370;9.006;2024-01-10T18:37:01;-5.60;1.00
11242;DHT22;5678;52.370;9.006;2024-01-10T18:39:29;-5.60;1.00
11242;DHT22;5678;52.370;9.006;2024-01-10T18:41:57;-5.60;1.00
11242;DHT22;5678;52.370;9.006;2024-01-10T18:44:25;-5.40;1.00
11242;DHT22;5678;52.370;9.006;2024-01-10T18:46:56;-5.60;1.00
11242;DHT22;5678;52.370;9.006;2024-01-10T18:49:24;-5.20;1.00
11242;DHT22;5678;52.370;9.006;2024-01-10T18:51:52;-5.50;1.00
11242;DHT22;5678;52.370;9.006;2024-01-10T18:54:23;-5.50;1.00
11242;DHT22;5678;52.370;9.006;2024-01-10T18:56:52;-5.50;1.00
11242;DHT22;5678;52.370;9.006;2024-01-10T18:59:20;-5.60;1.00
11242;DHT22;5678;52.370;9.006;2024-01-10T19:01:48;-5.60;1.00
11242;DHT22;5678;52.370;9.006;2024-01-10T19:04:17;-5.70;1.00
11242;DHT22;5678;52.370;9.006;2024-01-10T19:06:46;-5.70;1.00
11242;DHT22;5678;52.370;9.006;2024-01-10T19:09:14;-5.80;1.00
11242;DHT22;5678;52.370;9.006;2024-01-10T19:11:42;-5.90;1.00
11242;DHT22;5678;52.370;9.006;2024-01-10T19:14:13;-5.90;1.00
11242;DHT22;5678;52.370;9.006;2024-01-10T19:16:41;-4.80;1.00
11242;DHT22;5678;52.370;9.006;2024-01-10T19:19:10;-5.90;1.00
11242;DHT22;5678;52.370;9.006;2024-01-10T19:21:40;-5.90;1.00
11242;DHT22;5678;52.370;9.006;2024-01-10T19:24:08;-6.00;1.00
11242;DHT22;5678;52.370;9.006;2024-01-10T19:26:36;-6.00;1.00
11242;DHT22;5678;52.370;9.006;2024-01-10T19:29:04;-6.10;1.00
11242;DHT22;5678;52.370;9.006;2024-01-10T19:31:32;-6.00;1.00
11242;DHT22;5678;52.370;9.006;2024-01-10T19:34:00;-6.00;1.00
11242;DHT22;5678;52.370;9.006;2024-01-10T19:36:29;-6.10;1.00
11242;DHT22;5678;52.370;9.006;2024-01-10T19:39:01;-6.00;1.00
11242;DHT22;5678;52.370;9.006;2024-01-10T20:23:14;-6.30;1.00
11242;DHT22;5678;52.370;9.006;2024-01-10T20:25:42;-6.60;2.10
11242;DHT22;5678;52.370;9.006;2024-01-10T20:28:12;-6.50;99.90
11242;DHT22;5678;52.370;9.006;2024-01-10T20:30:42;-6.60;99.90
11242;DHT22;5678;52.370;9.006;2024-01-10T20:33:10;-6.60;99.90
11242;DHT22;5678;52.370;9.006;2024-01-10T20:35:39;-6.60;99.90
11242;DHT22;5678;52.370;9.006;2024-01-10T20:38:07;-6.70;99.90
11242;DHT22;5678;52.370;9.006;2024-01-10T20:40:37;-6.70;99.90
11242;DHT22;5678;52.370;9.006;2024-01-10T20:43:06;-6.60;99.90
11242;DHT22;5678;52.370;9.006;2024-01-10T20:45:34;-6.60;99.90
11242;DHT22;5678;52.370;9.006;2024-01-10T20:48:03;-6.70;99.90
11242;DHT22;5678;52.370;9.006;2024-01-10T20:50:31;-6.60;99.90
11242;DHT22;5678;52.370;9.006;2024-01-10T20:52:59;-6.60;99.90
11242;DHT22;5678;52.370;9.006;2024-01-10T20:55:27;-6.60;99.90
11242;DHT22;5678;52.370;9.006;2024-01-10T20:57:57;-6.40;99.90
11242;DHT22;5678;52.370;9.006;2024-01-10T21:00:25;-6.60;99.90
11242;DHT22;5678;52.370;9.006;2024-01-10T21:02:53;-6.60;1.00
